createdAt,value
2024-01-11T00:06:42.194Z,54.233
2024-01-11T00:21:44.353Z,51.123
2024-01-11T00:36:46.393Z,55.739
2024-01-11T00:51:48.423Z,56.217
2024-01-11T01:06:50.532Z,55.267
2024-01-11T01:21:52.590Z,58.524
2024-01-11T01:36:54.668Z,55.068
2024-01-11T01:51:56.719Z,54.413
2024-01-11T02:06:58.812Z,54.277
2024-01-11T02:22:00.931Z,56.644
2024-01-11T02:37:02.916Z,56.726
2024-01-11T02:52:05.078Z,57.766
2024-01-11T03:07:07.296Z,57.191
2024-01-11T03:22:09.427Z,60.733
2024-01-11T03:37:11.512Z,56.868
2024-01-11T03:52:13.610Z,55.51
2024-01-11T04:07:15.652Z,60.685
2024-01-11T04:22:17.630Z,58.011
2024-01-11T04:37:19.648Z,58.717
2024-01-11T04:52:21.780Z,57.719
2024-01-11T05:07:23.800Z,57.301
2024-01-11T05:22:25.838Z,56.84
2024-01-11T05:37:28.033Z,58.738
2024-01-11T05:52:30.056Z,58.451
2024-01-11T06:07:32.122Z,57.715
2024-01-11T06:22:34.104Z,59.311
2024-01-11T06:37:36.906Z,59.633
2024-01-11T06:52:39.014Z,60.512
2024-01-11T07:07:41.110Z,58.719
2024-01-11T07:22:43.162Z,59.505
2024-01-11T07:37:45.273Z,57.873
2024-01-11T07:52:47.338Z,59.28
2024-01-11T08:07:49.380Z,59.583
2024-01-11T08:22:51.424Z,57.329
2024-01-11T08:53:00.776Z,57.695
2024-01-11T09:08:02.845Z,60.766
2024-01-11T09:23:05.213Z,61.212
2024-01-11T09:38:07.576Z,58.949
2024-01-11T09:53:09.690Z,61.168
2024-01-11T10:08:11.785Z,60.285
2024-01-11T10:23:13.841Z,60.01
2024-01-11T10:38:15.922Z,62.429
2024-01-11T10:53:17.991Z,62.026
2024-01-11T11:08:20.118Z,62.925
2024-01-11T11:23:22.192Z,61.95
2024-01-11T11:38:24.294Z,61.515
2024-01-11T11:53:26.500Z,61.604
2024-01-11T12:08:28.736Z,63.452
2024-01-11T12:23:31.077Z,63.252
2024-01-11T12:38:33.181Z,62.647
2024-01-11T12:53:35.370Z,62.995
2024-01-11T13:08:37.612Z,62.266
2024-01-11T13:23:39.983Z,65.401
2024-01-11T13:38:42.206Z,66.208
2024-01-11T13:53:44.333Z,66.046
2024-01-11T14:08:46.440Z,65.529
2024-01-11T14:23:48.601Z,66.541
2024-01-11T14:38:50.694Z,66.245
2024-01-11T14:53:52.893Z,66.554
2024-01-11T15:08:55.040Z,67.904
2024-01-11T15:23:57.245Z,65.572
2024-01-11T15:39:08.188Z,66.528
2024-01-11T15:54:19.234Z,66.09
2024-01-11T16:09:21.407Z,66.553
2024-01-11T16:24:23.417Z,65.105
2024-01-11T16:39:25.468Z,62.622
2024-01-11T16:54:27.482Z,63.151
2024-01-11T17:09:29.560Z,63.13
2024-01-11T17:24:31.563Z,64.256
2024-01-11T17:39:33.578Z,62.947
2024-01-11T17:54:35.650Z,64.242
2024-01-11T18:09:37.664Z,62.491
2024-01-11T18:24:39.838Z,58.763
2024-01-11T18:39:41.806Z,61.62
2024-01-11T18:54:43.908Z,58.171
2024-01-11T19:09:46.074Z,55.964
2024-01-11T19:24:48.126Z,52.905
2024-01-11T19:39:50.075Z,51.729
2024-01-11T19:54:52.292Z,51.275
2024-01-11T20:09:54.394Z,48.835
2024-01-11T20:24:56.480Z,49.011
2024-01-11T20:39:58.596Z,49.367
2024-01-11T20:55:00.895Z,46.95
2024-01-11T21:10:02.963Z,45.989
2024-01-11T21:25:05.065Z,48.414
2024-01-11T21:40:07.097Z,46.523
2024-01-11T21:55:09.252Z,44.512
2024-01-11T22:10:11.342Z,48.754
2024-01-11T22:25:13.498Z,47.473
2024-01-11T22:40:15.500Z,50.004
2024-01-11T22:55:17.496Z,48.872
2024-01-11T23:10:19.596Z,51.519
2024-01-11T23:25:21.647Z,52.989
2024-01-11T23:40:23.678Z,52.235
2024-01-11T23:55:25.912Z,52.223
